sensor_id;sensor_type;location;lat;lon;timestamp;temperature;humidity
7366;DHT22;3723;52.220;8.792;2022-07-25T00:10:43;18.40;99.90
7366;DHT22;3723;52.220;8.792;2022-07-25T00:14:05;18.50;99.90
7366;DHT22;3723;52.220;8.792;2022-07-25T00:23:51;18.40;99.90
7366;DHT22;3723;52.220;8.792;2022-07-25T00:43:58;18.40;99.90
7366;DHT22;3723;52.220;8.792;2022-07-25T00:53:21;18.30;99.90
7366;DHT22;3723;52.220;8.792;2022-07-25T01:13:25;18.00;99.90
7366;DHT22;3723;52.220;8.792;2022-07-25T01:33:20;17.90;99.90
7366;DHT22;3723;52.220;8.792;2022-07-25T01:36:16;17.80;99.90
7366;DHT22;3723;52.220;8.792;2022-07-25T03:35:28;17.40;99.90
7366;DHT22;3723;52.220;8.792;2022-07-25T03:38:17;17.30;99.90
7366;DHT22;3723;52.220;8.792;2022-07-25T05:04:12;25.40;99.90
7366;DHT22;3723;52.220;8.792;2022-07-25T05:12:09;27.20;99.90
7366;DHT22;3723;52.220;8.792;2022-07-25T05:14:36;27.60;99.90
7366;DHT22;3723;52.220;8.792;2022-07-25T05:17:03;27.80;99.90
7366;DHT22;3723;52.220;8.792;2022-07-25T05:19:32;28.20;99.90
7366;DHT22;3723;52.220;8.792;2022-07-25T05:21:59;28.40;99.90
7366;DHT22;3723;52.220;8.792;2022-07-25T05:24:26;28.60;99.90
7366;DHT22;3723;52.220;8.792;2022-07-25T05:26:53;28.80;99.90
7366;DHT22;3723;52.220;8.792;2022-07-25T05:29:20;29.20;99.90
7366;DHT22;3723;52.220;8.792;2022-07-25T05:31:47;29.40;99.90
7366;DHT22;3723;52.220;8.792;2022-07-25T05:34:14;29.80;99.90
7366;DHT22;3723;52.220;8.792;2022-07-25T05:36:42;30.20;99.90
7366;DHT22;3723;52.220;8.792;2022-07-25T05:39:09;30.60;99.90
7366;DHT22;3723;52.220;8.792;2022-07-25T05:41:36;30.90;99.90
7366;DHT22;3723;52.220;8.792;2022-07-25T05:44:03;31.50;99.90
7366;DHT22;3723;52.220;8.792;2022-07-25T05:46:31;32.00;99.90
7366;DHT22;3723;52.220;8.792;2022-07-25T05:48:58;32.50;99.90
7366;DHT22;3723;52.220;8.792;2022-07-25T05:51:25;33.00;99.90
7366;DHT22;3723;52.220;8.792;2022-07-25T05:53:54;33.50;99.90
7366;DHT22;3723;52.220;8.792;2022-07-25T05:56:20;33.50;99.90
7366;DHT22;3723;52.220;8.792;2022-07-25T05:58:47;33.50;99.90
7366;DHT22;3723;52.220;8.792;2022-07-25T06:01:15;33.40;99.90
7366;DHT22;3723;52.220;8.792;2022-07-25T06:03:42;33.30;99.90
7366;DHT22;3723;52.220;8.792;2022-07-25T06:06:09;33.30;99.90
7366;DHT22;3723;52.220;8.792;2022-07-25T06:08:36;33.70;99.90
7366;DHT22;3723;52.220;8.792;2022-07-25T06:11:05;33.80;99.90
7366;DHT22;3723;52.220;8.792;2022-07-25T06:13:33;33.80;99.90
7366;DHT22;3723;52.220;8.792;2022-07-25T06:16:00;33.40;99.90
7366;DHT22;3723;52.220;8.792;2022-07-25T06:18:28;33.10;99.90
7366;DHT22;3723;52.220;8.792;2022-07-25T06:20:54;33.10;99.90
7366;DHT22;3723;52.220;8.792;2022-07-25T06:23:21;33.00;99.90
7366;DHT22;3723;52.220;8.792;2022-07-25T06:25:48;33.00;99.90
7366;DHT22;3723;52.220;8.792;2022-07-25T06:28:16;33.20;99.90
7366;DHT22;3723;52.220;8.792;2022-07-25T06:30:44;33.30;99.90
7366;DHT22;3723;52.220;8.792;2022-07-25T06:33:11;33.40;99.90
7366;DHT22;3723;52.220;8.792;2022-07-25T06:35:38;33.30;99.90
7366;DHT22;3723;52.220;8.792;2022-07-25T06:38:05;33.10;99.90
7366;DHT22;3723;52.220;8.792;2022-07-25T06:40:32;32.70;99.90
7366;DHT22;3723;52.220;8.792;2022-07-25T06:42:59;32.60;99.90
7366;DHT22;3723;52.220;8.792;2022-07-25T06:45:27;32.20;99.90
7366;DHT22;3723;52.220;8.792;2022-07-25T06:47:54;31.40;99.90
7366;DHT22;3723;52.220;8.792;2022-07-25T06:50:20;30.80;99.90
7366;DHT22;3723;52.220;8.792;2022-07-25T06:52:48;30.30;99.90
7366;DHT22;3723;52.220;8.792;2022-07-25T06:55:15;30.10;99.90
7366;DHT22;3723;52.220;8.792;2022-07-25T06:57:42;30.10;99.90
7366;DHT22;3723;52.220;8.792;2022-07-25T07:00:11;30.00;99.90
7366;DHT22;3723;52.220;8.792;2022-07-25T07:02:48;29.90;99.90
7366;DHT22;3723;52.220;8.792;2022-07-25T07:05:16;29.80;99.90
7366;DHT22;3723;52.220;8.792;2022-07-25T07:07:43;29.90;99.90
7366;DHT22;3723;52.220;8.792;2022-07-25T07:10:10;30.10;99.90
7366;DHT22;3723;52.220;8.792;2022-07-25T07:12:37;30.40;99.90
7366;DHT22;3723;52.220;8.792;2022-07-25T07:15:04;30.80;99.90
7366;DHT22;3723;52.220;8.792;2022-07-25T07:17:31;31.20;99.90
7366;DHT22;3723;52.220;8.792;2022-07-25T07:19:59;31.50;99.90
7366;DHT22;3723;52.220;8.792;2022-07-25T07:22:26;31.70;99.90
7366;DHT22;3723;52.220;8.792;2022-07-25T07:24:53;32.10;99.90
7366;DHT22;3723;52.220;8.792;2022-07-25T07:27:20;32.70;99.90
7366;DHT22;3723;52.220;8.792;2022-07-25T07:29:48;33.00;99.90
7366;DHT22;3723;52.220;8.792;2022-07-25T07:32:14;33.30;99.90
7366;DHT22;3723;52.220;8.792;2022-07-25T07:34:41;33.50;99.90
7366;DHT22;3723;52.220;8.792;2022-07-25T07:37:10;33.60;99.90
7366;DHT22;3723;52.220;8.792;2022-07-25T07:39:36;33.80;99.90
7366;DHT22;3723;52.220;8.792;2022-07-25T07:42:03;33.90;99.90
7366;DHT22;3723;52.220;8.792;2022-07-25T07:44:30;34.20;99.90
7366;DHT22;3723;52.220;8.792;2022-07-25T07:46:57;34.60;99.90
7366;DHT22;3723;52.220;8.792;2022-07-25T07:49:27;34.70;99.90
7366;DHT22;3723;52.220;8.792;2022-07-25T07:51:54;34.60;99.90
7366;DHT22;3723;52.220;8.792;2022-07-25T07:54:22;34.30;99.90
7366;DHT22;3723;52.220;8.792;2022-07-25T07:57:06;34.30;99.90
7366;DHT22;3723;52.220;8.792;2022-07-25T07:59:33;34.40;99.90
7366;DHT22;3723;52.220;8.792;2022-07-25T08:02:00;34.30;99.90
7366;DHT22;3723;52.220;8.792;2022-07-25T08:04:27;34.50;99.90
7366;DHT22;3723;52.220;8.792;2022-07-25T08:06:54;35.10;99.90
7366;DHT22;3723;52.220;8.792;2022-07-25T08:09:22;35.90;99.90
7366;DHT22;3723;52.220;8.792;2022-07-25T08:11:50;36.00;99.90
7366;DHT22;3723;52.220;8.792;2022-07-25T08:14:17;35.70;99.90
7366;DHT22;3723;52.220;8.792;2022-07-25T08:16:44;35.50;99.90
7366;DHT22;3723;52.220;8.792;2022-07-25T08:19:10;35.30;99.90
7366;DHT22;3723;52.220;8.792;2022-07-25T08:21:37;35.60;99.90
7366;DHT22;3723;52.220;8.792;2022-07-25T08:24:04;35.90;99.90
7366;DHT22;3723;52.220;8.792;2022-07-25T08:26:33;35.90;99.90
7366;DHT22;3723;52.220;8.792;2022-07-25T08:29:01;36.10;99.90
7366;DHT22;3723;52.220;8.792;2022-07-25T08:31:28;36.30;99.90
7366;DHT22;3723;52.220;8.792;2022-07-25T08:33:55;36.70;99.90
7366;DHT22;3723;52.220;8.792;2022-07-25T08:36:23;37.20;99.90
7366;DHT22;3723;52.220;8.792;2022-07-25T08:38:50;37.40;99.90
7366;DHT22;3723;52.220;8.792;2022-07-25T08:41:19;38.40;99.90
7366;DHT22;3723;52.220;8.792;2022-07-25T08:43:48;38.30;99.90
7366;DHT22;3723;52.220;8.792;2022-07-25T08:46:16;38.30;99.90
7366;DHT22;3723;52.220;8.792;2022-07-25T08:48:44;38.10;99.90
7366;DHT22;3723;52.220;8.792;2022-07-25T08:51:11;37.70;99.90
7366;DHT22;3723;52.220;8.792;2022-07-25T08:53:38;37.70;99.90
7366;DHT22;3723;52.220;8.792;2022-07-25T08:56:07;37.40;99.90
7366;DHT22;3723;52.220;8.792;2022-07-25T08:58:34;37.00;99.90
7366;DHT22;3723;52.220;8.792;2022-07-25T09:01:02;36.80;99.90
7366;DHT22;3723;52.220;8.792;2022-07-25T09:03:29;36.90;99.90
7366;DHT22;3723;52.220;8.792;2022-07-25T09:05:57;37.00;99.90
7366;DHT22;3723;52.220;8.792;2022-07-25T09:08:25;37.00;99.90
7366;DHT22;3723;52.220;8.792;2022-07-25T09:10:52;36.80;99.90
7366;DHT22;3723;52.220;8.792;2022-07-25T09:13:20;36.60;99.90
7366;DHT22;3723;52.220;8.792;2022-07-25T09:15:50;36.60;99.90
7366;DHT22;3723;52.220;8.792;2022-07-25T09:18:26;36.60;99.90
7366;DHT22;3723;52.220;8.792;2022-07-25T09:20:55;36.80;99.90
7366;DHT22;3723;52.220;8.792;2022-07-25T09:23:28;37.00;99.90
7366;DHT22;3723;52.220;8.792;2022-07-25T09:26:02;37.40;99.90
7366;DHT22;3723;52.220;8.792;2022-07-25T09:28:38;37.70;99.90
7366;DHT22;3723;52.220;8.792;2022-07-25T09:31:05;38.00;99.90
7366;DHT22;3723;52.220;8.792;2022-07-25T09:33:44;38.20;99.90
7366;DHT22;3723;52.220;8.792;2022-07-25T09:36:12;38.00;99.90
7366;DHT22;3723;52.220;8.792;2022-07-25T09:38:39;37.30;99.90
7366;DHT22;3723;52.220;8.792;2022-07-25T09:41:06;36.60;99.90
7366;DHT22;3723;52.220;8.792;2022-07-25T09:43:37;36.00;99.90
7366;DHT22;3723;52.220;8.792;2022-07-25T09:46:04;35.80;99.90
7366;DHT22;3723;52.220;8.792;2022-07-25T09:48:31;35.60;99.90
7366;DHT22;3723;52.220;8.792;2022-07-25T09:51:00;35.30;99.90
7366;DHT22;3723;52.220;8.792;2022-07-25T09:53:27;35.20;99.90
7366;DHT22;3723;52.220;8.792;2022-07-25T09:55:58;35.20;99.90
7366;DHT22;3723;52.220;8.792;2022-07-25T09:58:26;34.90;99.90
7366;DHT22;3723;52.220;8.792;2022-07-25T10:00:54;34.90;99.90
7366;DHT22;3723;52.220;8.792;2022-07-25T10:03:31;35.10;99.90
7366;DHT22;3723;52.220;8.792;2022-07-25T10:06:10;35.10;99.90
7366;DHT22;3723;52.220;8.792;2022-07-25T10:08:41;34.90;99.90
7366;DHT22;3723;52.220;8.792;2022-07-25T10:11:17;34.80;99.90
7366;DHT22;3723;52.220;8.792;2022-07-25T10:13:44;34.70;99.90
7366;DHT22;3723;52.220;8.792;2022-07-25T10:16:16;34.80;99.90
7366;DHT22;3723;52.220;8.792;2022-07-25T10:18:50;34.80;99.90
7366;DHT22;3723;52.220;8.792;2022-07-25T10:21:19;34.70;99.90
7366;DHT22;3723;52.220;8.792;2022-07-25T10:23:57;34.50;99.90
7366;DHT22;3723;52.220;8.792;2022-07-25T10:26:24;34.20;99.90
7366;DHT22;3723;52.220;8.792;2022-07-25T10:28:53;33.90;99.90
7366;DHT22;3723;52.220;8.792;2022-07-25T10:31:22;33.70;99.90
7366;DHT22;3723;52.220;8.792;2022-07-25T10:33:57;33.50;99.90
7366;DHT22;3723;52.220;8.792;2022-07-25T10:36:28;33.20;99.90
7366;DHT22;3723;52.220;8.792;2022-07-25T10:39:08;32.90;99.90
7366;DHT22;3723;52.220;8.792;2022-07-25T10:41:37;32.80;99.90
7366;DHT22;3723;52.220;8.792;2022-07-25T10:44:10;32.80;99.90
7366;DHT22;3723;52.220;8.792;2022-07-25T10:46:37;32.90;99.90
7366;DHT22;3723;52.220;8.792;2022-07-25T10:49:05;33.20;99.90
7366;DHT22;3723;52.220;8.792;2022-07-25T10:51:36;33.60;99.90
7366;DHT22;3723;52.220;8.792;2022-07-25T10:54:13;34.00;99.90
7366;DHT22;3723;52.220;8.792;2022-07-25T10:56:51;34.60;99.90
7366;DHT22;3723;52.220;8.792;2022-07-25T10:59:25;34.90;99.90
7366;DHT22;3723;52.220;8.792;2022-07-25T11:01:53;34.70;99.90
7366;DHT22;3723;52.220;8.792;2022-07-25T11:04:20;34.50;99.90
7366;DHT22;3723;52.220;8.792;2022-07-25T11:06:49;34.60;99.90
7366;DHT22;3723;52.220;8.792;2022-07-25T11:09:18;34.60;99.90
7366;DHT22;3723;52.220;8.792;2022-07-25T11:11:48;34.90;99.90
7366;DHT22;3723;52.220;8.792;2022-07-25T11:14:17;35.40;99.90
7366;DHT22;3723;52.220;8.792;2022-07-25T11:16:46;36.40;99.90
7366;DHT22;3723;52.220;8.792;2022-07-25T11:19:17;36.90;99.90
7366;DHT22;3723;52.220;8.792;2022-07-25T11:21:46;37.10;99.90
7366;DHT22;3723;52.220;8.792;2022-07-25T11:24:14;36.80;99.90
7366;DHT22;3723;52.220;8.792;2022-07-25T11:26:45;36.50;99.90
7366;DHT22;3723;52.220;8.792;2022-07-25T11:29:19;36.00;99.90
7366;DHT22;3723;52.220;8.792;2022-07-25T11:31:57;35.90;99.90
7366;DHT22;3723;52.220;8.792;2022-07-25T11:34:27;35.90;99.90
7366;DHT22;3723;52.220;8.792;2022-07-25T11:36:59;36.10;99.90
7366;DHT22;3723;52.220;8.792;2022-07-25T11:39:29;36.20;99.90
7366;DHT22;3723;52.220;8.792;2022-07-25T11:42:01;36.00;99.90
7366;DHT22;3723;52.220;8.792;2022-07-25T11:44:36;35.60;99.90
7366;DHT22;3723;52.220;8.792;2022-07-25T11:47:05;35.10;99.90
7366;DHT22;3723;52.220;8.792;2022-07-25T11:49:43;34.70;99.90
7366;DHT22;3723;52.220;8.792;2022-07-25T11:52:21;34.60;99.90
7366;DHT22;3723;52.220;8.792;2022-07-25T11:54:54;34.50;99.90
7366;DHT22;3723;52.220;8.792;2022-07-25T11:57:22;34.50;99.90
7366;DHT22;3723;52.220;8.792;2022-07-25T11:59:49;34.50;99.90
7366;DHT22;3723;52.220;8.792;2022-07-25T12:02:23;34.40;99.90
7366;DHT22;3723;52.220;8.792;2022-07-25T12:04:55;34.40;99.90
7366;DHT22;3723;52.220;8.792;2022-07-25T12:07:35;33.90;99.90
7366;DHT22;3723;52.220;8.792;2022-07-25T12:10:05;33.50;99.90
7366;DHT22;3723;52.220;8.792;2022-07-25T12:12:50;33.10;99.90
7366;DHT22;3723;52.220;8.792;2022-07-25T12:15:19;32.80;99.90
7366;DHT22;3723;52.220;8.792;2022-07-25T12:17:47;32.60;99.90
7366;DHT22;3723;52.220;8.792;2022-07-25T12:20:15;32.50;99.90
7366;DHT22;3723;52.220;8.792;2022-07-25T12:22:42;32.30;99.90
7366;DHT22;3723;52.220;8.792;2022-07-25T12:25:11;32.10;99.90
7366;DHT22;3723;52.220;8.792;2022-07-25T12:27:38;31.90;99.90
7366;DHT22;3723;52.220;8.792;2022-07-25T12:30:06;32.00;99.90
7366;DHT22;3723;52.220;8.792;2022-07-25T12:32:34;32.40;99.90
7366;DHT22;3723;52.220;8.792;2022-07-25T12:35:01;32.90;99.90
7366;DHT22;3723;52.220;8.792;2022-07-25T12:37:28;33.40;99.90
7366;DHT22;3723;52.220;8.792;2022-07-25T12:39:55;34.10;99.90
7366;DHT22;3723;52.220;8.792;2022-07-25T12:42:23;35.70;99.90
7366;DHT22;3723;52.220;8.792;2022-07-25T12:44:50;37.20;99.90
7366;DHT22;3723;52.220;8.792;2022-07-25T12:47:17;38.30;99.90
7366;DHT22;3723;52.220;8.792;2022-07-25T12:49:44;39.10;99.90
7366;DHT22;3723;52.220;8.792;2022-07-25T12:52:13;39.50;90.90
7366;DHT22;3723;52.220;8.792;2022-07-25T12:54:40;39.50;66.60
7366;DHT22;3723;52.220;8.792;2022-07-25T12:57:07;39.40;72.10
7366;DHT22;3723;52.220;8.792;2022-07-25T12:59:36;39.60;99.90
7366;DHT22;3723;52.220;8.792;2022-07-25T13:02:03;39.60;99.90
7366;DHT22;3723;52.220;8.792;2022-07-25T13:04:30;39.20;99.90
7366;DHT22;3723;52.220;8.792;2022-07-25T13:06:58;39.00;99.90
7366;DHT22;3723;52.220;8.792;2022-07-25T13:09:25;38.60;99.90
7366;DHT22;3723;52.220;8.792;2022-07-25T13:11:53;38.60;99.90
7366;DHT22;3723;52.220;8.792;2022-07-25T13:14:20;38.60;99.90
7366;DHT22;3723;52.220;8.792;2022-07-25T13:16:48;38.60;99.90
7366;DHT22;3723;52.220;8.792;2022-07-25T13:19:16;38.70;99.90
7366;DHT22;3723;52.220;8.792;2022-07-25T13:21:43;38.50;99.90
7366;DHT22;3723;52.220;8.792;2022-07-25T13:24:10;38.40;99.90
7366;DHT22;3723;52.220;8.792;2022-07-25T13:26:37;38.00;99.90
7366;DHT22;3723;52.220;8.792;2022-07-25T13:29:05;37.10;99.90
7366;DHT22;3723;52.220;8.792;2022-07-25T13:31:32;36.60;99.90
7366;DHT22;3723;52.220;8.792;2022-07-25T13:34:01;36.40;99.90
7366;DHT22;3723;52.220;8.792;2022-07-25T13:36:28;36.30;99.90
7366;DHT22;3723;52.220;8.792;2022-07-25T13:38:55;36.30;99.90
7366;DHT22;3723;52.220;8.792;2022-07-25T13:41:21;36.00;99.90
7366;DHT22;3723;52.220;8.792;2022-07-25T13:43:48;35.80;99.90
7366;DHT22;3723;52.220;8.792;2022-07-25T13:46:15;35.50;99.90
7366;DHT22;3723;52.220;8.792;2022-07-25T13:48:42;35.50;99.90
7366;DHT22;3723;52.220;8.792;2022-07-25T13:51:10;35.50;99.90
7366;DHT22;3723;52.220;8.792;2022-07-25T13:53:37;35.50;99.90
7366;DHT22;3723;52.220;8.792;2022-07-25T13:56:04;35.60;99.90
7366;DHT22;3723;52.220;8.792;2022-07-25T13:58:31;36.10;99.90
7366;DHT22;3723;52.220;8.792;2022-07-25T14:00:58;36.60;99.90
7366;DHT22;3723;52.220;8.792;2022-07-25T14:03:25;36.10;93.60
7366;DHT22;3723;52.220;8.792;2022-07-25T14:05:57;35.80;75.50
7366;DHT22;3723;52.220;8.792;2022-07-25T14:08:25;35.40;58.50
7366;DHT22;3723;52.220;8.792;2022-07-25T14:10:52;34.80;53.60
7366;DHT22;3723;52.220;8.792;2022-07-25T14:13:23;34.30;49.10
7366;DHT22;3723;52.220;8.792;2022-07-25T14:15:50;34.00;49.90
7366;DHT22;3723;52.220;8.792;2022-07-25T14:18:17;33.80;47.50
7366;DHT22;3723;52.220;8.792;2022-07-25T14:20:47;33.30;46.00
7366;DHT22;3723;52.220;8.792;2022-07-25T14:23:27;33.00;45.90
7366;DHT22;3723;52.220;8.792;2022-07-25T14:25:54;33.00;47.30
7366;DHT22;3723;52.220;8.792;2022-07-25T14:28:21;33.50;49.30
7366;DHT22;3723;52.220;8.792;2022-07-25T14:30:55;33.50;49.90
7366;DHT22;3723;52.220;8.792;2022-07-25T14:33:27;33.20;48.20
7366;DHT22;3723;52.220;8.792;2022-07-25T14:39:19;32.70;47.50
7366;DHT22;3723;52.220;8.792;2022-07-25T14:41:46;32.40;47.80
7366;DHT22;3723;52.220;8.792;2022-07-25T14:44:19;32.20;47.20
7366;DHT22;3723;52.220;8.792;2022-07-25T14:46:46;32.00;46.80
7366;DHT22;3723;52.220;8.792;2022-07-25T14:49:14;31.80;47.20
7366;DHT22;3723;52.220;8.792;2022-07-25T14:51:42;31.70;48.80
7366;DHT22;3723;52.220;8.792;2022-07-25T14:54:17;31.70;47.60
7366;DHT22;3723;52.220;8.792;2022-07-25T14:56:45;31.80;48.80
7366;DHT22;3723;52.220;8.792;2022-07-25T14:59:22;31.70;49.10
7366;DHT22;3723;52.220;8.792;2022-07-25T15:01:55;31.70;49.90
7366;DHT22;3723;52.220;8.792;2022-07-25T15:04:22;31.50;52.50
7366;DHT22;3723;52.220;8.792;2022-07-25T15:06:50;31.50;63.00
7366;DHT22;3723;52.220;8.792;2022-07-25T15:09:37;31.40;50.60
7366;DHT22;3723;52.220;8.792;2022-07-25T15:12:21;31.10;49.00
7366;DHT22;3723;52.220;8.792;2022-07-25T15:14:51;30.90;49.30
7366;DHT22;3723;52.220;8.792;2022-07-25T15:17:18;30.70;49.10
7366;DHT22;3723;52.220;8.792;2022-07-25T15:19:45;30.70;48.40
7366;DHT22;3723;52.220;8.792;2022-07-25T15:22:19;30.40;50.10
7366;DHT22;3723;52.220;8.792;2022-07-25T15:24:50;30.10;47.50
7366;DHT22;3723;52.220;8.792;2022-07-25T15:28:02;29.90;65.80
7366;DHT22;3723;52.220;8.792;2022-07-25T15:30:38;29.80;63.30
7366;DHT22;3723;52.220;8.792;2022-07-25T15:33:07;30.00;65.40
7366;DHT22;3723;52.220;8.792;2022-07-25T15:35:35;30.30;66.20
7366;DHT22;3723;52.220;8.792;2022-07-25T15:38:25;30.50;69.00
7366;DHT22;3723;52.220;8.792;2022-07-25T15:41:10;30.40;66.20
7366;DHT22;3723;52.220;8.792;2022-07-25T15:43:39;30.10;67.20
7366;DHT22;3723;52.220;8.792;2022-07-25T15:46:29;29.90;67.20
7366;DHT22;3723;52.220;8.792;2022-07-25T15:49:38;29.60;65.20
7366;DHT22;3723;52.220;8.792;2022-07-25T15:52:48;29.20;63.30
7366;DHT22;3723;52.220;8.792;2022-07-25T15:56:45;29.10;70.30
7366;DHT22;3723;52.220;8.792;2022-07-25T15:58:50;29.20;68.60
7366;DHT22;3723;52.220;8.792;2022-07-25T16:01:36;29.30;70.50
7366;DHT22;3723;52.220;8.792;2022-07-25T16:04:24;29.50;69.80
7366;DHT22;3723;52.220;8.792;2022-07-25T16:06:55;29.50;73.30
7366;DHT22;3723;52.220;8.792;2022-07-25T16:09:25;29.50;74.70
7366;DHT22;3723;52.220;8.792;2022-07-25T16:12:07;29.30;86.70
7366;DHT22;3723;52.220;8.792;2022-07-25T16:14:48;29.10;78.70
7366;DHT22;3723;52.220;8.792;2022-07-25T16:17:50;28.90;74.60
7366;DHT22;3723;52.220;8.792;2022-07-25T16:20:23;28.80;74.70
7366;DHT22;3723;52.220;8.792;2022-07-25T16:22:50;29.00;74.40
7366;DHT22;3723;52.220;8.792;2022-07-25T16:25:36;29.00;71.60
7366;DHT22;3723;52.220;8.792;2022-07-25T16:28:07;28.80;68.90
7366;DHT22;3723;52.220;8.792;2022-07-25T16:30:47;28.40;63.00
7366;DHT22;3723;52.220;8.792;2022-07-25T16:33:14;28.10;99.90
7366;DHT22;3723;52.220;8.792;2022-07-25T16:35:53;27.90;99.90
7366;DHT22;3723;52.220;8.792;2022-07-25T16:38:28;28.00;99.90
7366;DHT22;3723;52.220;8.792;2022-07-25T16:41:08;28.30;99.90
7366;DHT22;3723;52.220;8.792;2022-07-25T16:43:35;28.60;99.90
7366;DHT22;3723;52.220;8.792;2022-07-25T16:46:03;28.80;99.90
7366;DHT22;3723;52.220;8.792;2022-07-25T16:48:33;28.70;99.90
7366;DHT22;3723;52.220;8.792;2022-07-25T16:51:09;28.50;99.90
7366;DHT22;3723;52.220;8.792;2022-07-25T17:00:51;27.20;99.90
7366;DHT22;3723;52.220;8.792;2022-07-25T17:03:38;26.90;99.90
7366;DHT22;3723;52.220;8.792;2022-07-25T17:06:15;26.70;82.80
7366;DHT22;3723;52.220;8.792;2022-07-25T17:08:51;26.60;69.50
7366;DHT22;3723;52.220;8.792;2022-07-25T17:11:28;26.30;81.60
7366;DHT22;3723;52.220;8.792;2022-07-25T17:17:28;25.90;99.90
7366;DHT22;3723;52.220;8.792;2022-07-25T17:21:24;25.80;99.90
7366;DHT22;3723;52.220;8.792;2022-07-25T17:23:37;25.60;99.90
7366;DHT22;3723;52.220;8.792;2022-07-25T17:29:10;25.50;99.90
7366;DHT22;3723;52.220;8.792;2022-07-25T17:31:37;25.40;99.90
7366;DHT22;3723;52.220;8.792;2022-07-25T17:34:04;25.30;99.90
7366;DHT22;3723;52.220;8.792;2022-07-25T17:36:48;25.20;99.90
7366;DHT22;3723;52.220;8.792;2022-07-25T17:39:18;25.30;99.90
7366;DHT22;3723;52.220;8.792;2022-07-25T17:41:54;25.40;99.90
7366;DHT22;3723;52.220;8.792;2022-07-25T17:44:40;25.40;99.90
7366;DHT22;3723;52.220;8.792;2022-07-25T17:50:04;25.30;99.90
7366;DHT22;3723;52.220;8.792;2022-07-25T17:52:36;25.20;99.90
7366;DHT22;3723;52.220;8.792;2022-07-25T17:55:03;25.10;99.90
7366;DHT22;3723;52.220;8.792;2022-07-25T17:57:31;25.00;99.90
7366;DHT22;3723;52.220;8.792;2022-07-25T18:00:00;25.00;99.90
7366;DHT22;3723;52.220;8.792;2022-07-25T18:02:30;25.00;99.90
7366;DHT22;3723;52.220;8.792;2022-07-25T18:05:00;25.10;99.90
7366;DHT22;3723;52.220;8.792;2022-07-25T18:07:31;25.10;99.90
7366;DHT22;3723;52.220;8.792;2022-07-25T18:09:59;24.90;99.90
7366;DHT22;3723;52.220;8.792;2022-07-25T18:12:28;24.80;99.90
7366;DHT22;3723;52.220;8.792;2022-07-25T18:15:12;24.60;99.90
7366;DHT22;3723;52.220;8.792;2022-07-25T18:17:48;24.40;99.90
7366;DHT22;3723;52.220;8.792;2022-07-25T18:20:16;24.10;99.90
7366;DHT22;3723;52.220;8.792;2022-07-25T18:22:43;24.10;99.90
7366;DHT22;3723;52.220;8.792;2022-07-25T18:25:13;23.90;99.90
7366;DHT22;3723;52.220;8.792;2022-07-25T18:27:41;23.80;99.90
7366;DHT22;3723;52.220;8.792;2022-07-25T18:30:26;23.70;99.90
7366;DHT22;3723;52.220;8.792;2022-07-25T18:33:02;23.60;99.90
7366;DHT22;3723;52.220;8.792;2022-07-25T18:35:38;23.50;99.90
7366;DHT22;3723;52.220;8.792;2022-07-25T18:38:19;23.40;99.90
7366;DHT22;3723;52.220;8.792;2022-07-25T18:40:50;23.30;99.90
7366;DHT22;3723;52.220;8.792;2022-07-25T18:43:20;23.30;99.90
7366;DHT22;3723;52.220;8.792;2022-07-25T18:45:47;23.20;90.10
7366;DHT22;3723;52.220;8.792;2022-07-25T18:48:18;23.10;85.20
7366;DHT22;3723;52.220;8.792;2022-07-25T18:54:39;22.80;65.40
7366;DHT22;3723;52.220;8.792;2022-07-25T18:57:36;22.70;68.30
7366;DHT22;3723;52.220;8.792;2022-07-25T19:03:02;22.30;67.00
7366;DHT22;3723;52.220;8.792;2022-07-25T19:05:38;22.20;76.70
7366;DHT22;3723;52.220;8.792;2022-07-25T19:08:09;22.10;79.40
7366;DHT22;3723;52.220;8.792;2022-07-25T19:10:36;22.10;67.30
7366;DHT22;3723;52.220;8.792;2022-07-25T19:13:31;22.10;67.90
7366;DHT22;3723;52.220;8.792;2022-07-25T19:16:17;22.00;71.00
7366;DHT22;3723;52.220;8.792;2022-07-25T19:18:59;22.00;63.10
7366;DHT22;3723;52.220;8.792;2022-07-25T19:21:56;22.10;66.10
7366;DHT22;3723;52.220;8.792;2022-07-25T19:24:39;22.00;66.00
7366;DHT22;3723;52.220;8.792;2022-07-25T19:27:15;21.80;68.40
7366;DHT22;3723;52.220;8.792;2022-07-25T19:29:57;21.70;72.10
7366;DHT22;3723;52.220;8.792;2022-07-25T19:32:41;21.60;72.80
7366;DHT22;3723;52.220;8.792;2022-07-25T19:35:29;21.50;70.90
7366;DHT22;3723;52.220;8.792;2022-07-25T19:38:02;21.50;70.20
7366;DHT22;3723;52.220;8.792;2022-07-25T19:40:35;21.40;73.60
7366;DHT22;3723;52.220;8.792;2022-07-25T19:43:07;21.30;77.30
7366;DHT22;3723;52.220;8.792;2022-07-25T19:48:35;21.10;75.10
7366;DHT22;3723;52.220;8.792;2022-07-25T19:54:33;20.80;82.30
7366;DHT22;3723;52.220;8.792;2022-07-25T20:00:54;20.80;88.10
7366;DHT22;3723;52.220;8.792;2022-07-25T20:03:24;20.70;91.10
7366;DHT22;3723;52.220;8.792;2022-07-25T20:06:00;20.60;91.70
7366;DHT22;3723;52.220;8.792;2022-07-25T20:08:40;20.60;92.30
7366;DHT22;3723;52.220;8.792;2022-07-25T20:11:34;20.60;95.10
7366;DHT22;3723;52.220;8.792;2022-07-25T20:14:05;20.60;93.40
7366;DHT22;3723;52.220;8.792;2022-07-25T20:16:49;20.50;93.50
7366;DHT22;3723;52.220;8.792;2022-07-25T20:19:26;20.60;99.90
7366;DHT22;3723;52.220;8.792;2022-07-25T20:21:59;20.60;94.10
7366;DHT22;3723;52.220;8.792;2022-07-25T20:24:29;20.70;94.30
7366;DHT22;3723;52.220;8.792;2022-07-25T20:30:50;20.70;93.50
7366;DHT22;3723;52.220;8.792;2022-07-25T20:33:20;20.80;92.60
7366;DHT22;3723;52.220;8.792;2022-07-25T20:35:49;20.80;93.80
7366;DHT22;3723;52.220;8.792;2022-07-25T20:38:31;20.80;92.40
7366;DHT22;3723;52.220;8.792;2022-07-25T20:41:04;20.70;93.10
7366;DHT22;3723;52.220;8.792;2022-07-25T20:47:19;20.40;92.00
7366;DHT22;3723;52.220;8.792;2022-07-25T20:49:46;20.30;99.90
7366;DHT22;3723;52.220;8.792;2022-07-25T20:52:16;20.10;99.90
7366;DHT22;3723;52.220;8.792;2022-07-25T20:54:43;20.00;99.90
7366;DHT22;3723;52.220;8.792;2022-07-25T20:58:33;19.90;99.90
7366;DHT22;3723;52.220;8.792;2022-07-25T21:01:13;19.90;99.90
7366;DHT22;3723;52.220;8.792;2022-07-25T21:04:31;19.90;99.90
7366;DHT22;3723;52.220;8.792;2022-07-25T21:10:30;19.80;99.90
7366;DHT22;3723;52.220;8.792;2022-07-25T21:13:31;19.80;99.90
7366;DHT22;3723;52.220;8.792;2022-07-25T21:19:14;19.60;99.90
7366;DHT22;3723;52.220;8.792;2022-07-25T21:25:14;19.20;99.90
7366;DHT22;3723;52.220;8.792;2022-07-25T21:28:12;19.10;99.90
7366;DHT22;3723;52.220;8.792;2022-07-25T21:30:41;18.90;99.90
7366;DHT22;3723;52.220;8.792;2022-07-25T21:33:17;18.80;99.90
7366;DHT22;3723;52.220;8.792;2022-07-25T21:36:03;18.60;99.90
7366;DHT22;3723;52.220;8.792;2022-07-25T21:38:45;18.40;99.90
7366;DHT22;3723;52.220;8.792;2022-07-25T21:41:16;18.30;99.90
7366;DHT22;3723;52.220;8.792;2022-07-25T21:44:21;18.20;99.90
7366;DHT22;3723;52.220;8.792;2022-07-25T21:46:51;18.00;1.00
7366;DHT22;3723;52.220;8.792;2022-07-25T22:56:59;18.50;99.90
7366;DHT22;3723;52.220;8.792;2022-07-25T22:59:45;18.70;99.90
7366;DHT22;3723;52.220;8.792;2022-07-25T23:02:35;18.90;99.90
7366;DHT22;3723;52.220;8.792;2022-07-25T23:05:16;19.10;99.90
7366;DHT22;3723;52.220;8.792;2022-07-25T23:08:14;19.20;99.90
7366;DHT22;3723;52.220;8.792;2022-07-25T23:11:09;19.30;99.90
7366;DHT22;3723;52.220;8.792;2022-07-25T23:13:52;19.40;99.90
7366;DHT22;3723;52.220;8.792;2022-07-25T23:20:16;19.40;99.90
7366;DHT22;3723;52.220;8.792;2022-07-25T23:23:40;19.40;99.90
7366;DHT22;3723;52.220;8.792;2022-07-25T23:26:07;19.40;99.90